Time;durP1;ratioP1;P1;durP2;ratioP2;P2;SDS_P1;SDS_P2;PMS_P1;PMS_P2;Temp;Humidity;BMP_temperature;BMP_pressure;BME280_temperature;BME280_humidity;BME280_pressure;Samples;Min_cycle;Max_cycle;Signal;HPM_P1;HPM_P2
2022/06/08 00:00:45;;;;;;;17.55;11.93;;;;;;;16.36;100.00;100812.02;1634767;86;21147;-85
2022/06/08 00:03:18;;;;;;;18.35;12.60;;;;;;;16.34;100.00;100811.37;1626138;88;21107;-86
2022/06/08 00:05:46;;;;;;;21.93;13.43;;;;;;;16.27;100.00;100813.75;1628851;87;21059;-85
2022/06/08 00:08:13;;;;;;;18.57;12.58;;;;;;;16.17;100.00;100807.72;1628935;87;21179;-84
2022/06/08 00:10:40;;;;;;;19.85;12.85;;;;;;;15.98;100.00;100807.34;1629127;87;21041;-85
2022/06/08 00:13:08;;;;;;;18.17;12.80;;;;;;;15.87;100.00;100810.98;1628959;87;21544;-85
2022/06/08 00:15:35;;;;;;;22.02;12.78;;;;;;;15.80;100.00;100813.33;1629034;87;21043;-85
2022/06/08 00:18:05;;;;;;;16.93;12.63;;;;;;;15.76;100.00;100809.35;1629138;88;21084;-86
2022/06/08 00:20:33;;;;;;;14.50;11.75;;;;;;;15.71;100.00;100805.84;1628773;87;21168;-86
2022/06/08 00:23:00;;;;;;;18.75;12.58;;;;;;;15.69;100.00;100805.16;1628970;88;20988;-85
2022/06/08 00:25:29;;;;;;;15.70;11.75;;;;;;;15.68;100.00;100806.62;1628833;87;21048;-86
2022/06/08 00:27:56;;;;;;;16.40;12.25;;;;;;;15.64;100.00;100802.61;1628899;87;21245;-85
2022/06/08 00:30:24;;;;;;;15.53;12.20;;;;;;;15.62;100.00;100801.45;1628982;87;21115;-85
2022/06/08 00:32:51;;;;;;;15.40;12.05;;;;;;;15.63;100.00;100807.05;1629383;86;21271;-85
2022/06/08 00:35:18;;;;;;;16.80;11.75;;;;;;;15.62;100.00;100809.33;1640901;86;21031;-85
2022/06/08 00:37:45;;;;;;;18.52;11.97;;;;;;;15.61;100.00;100804.58;1640562;86;21170;-86
2022/06/08 00:40:17;;;;;;;20.08;12.10;;;;;;;15.61;100.00;100803.27;1641357;86;22211;-86
2022/06/08 00:42:45;;;;;;;15.68;11.60;;;;;;;15.62;100.00;100802.77;1640881;86;21047;-87
2022/06/08 00:45:17;;;;;;;13.85;10.88;;;;;;;15.62;100.00;100804.08;1640865;86;21098;-86
2022/06/08 00:47:55;;;;;;;14.78;11.05;;;;;;;15.62;100.00;100804.89;1637798;86;21109;-85
2022/06/08 00:50:28;;;;;;;18.05;11.60;;;;;;;15.62;100.00;100805.39;1637625;86;21098;-86
2022/06/08 00:52:57;;;;;;;16.95;11.45;;;;;;;15.61;100.00;100799.80;1634845;86;21035;-86
2022/06/08 00:55:29;;;;;;;14.10;11.20;;;;;;;15.61;100.00;100799.80;1616452;86;21048;-86
2022/06/08 00:58:04;;;;;;;13.85;10.60;;;;;;;15.61;100.00;100799.80;1640790;86;21796;-86
2022/06/08 01:00:38;;;;;;;16.70;12.23;;;;;;;15.57;100.00;100802.38;1640545;87;21055;-85
2022/06/08 01:03:09;;;;;;;15.25;11.78;;;;;;;15.55;100.00;100799.87;1640864;86;21133;-85
2022/06/08 01:05:46;;;;;;;15.28;11.10;;;;;;;15.55;100.00;100793.81;1636817;86;21035;-86
2022/06/08 01:08:29;;;;;;;16.95;11.10;;;;;;;15.53;100.00;100798.38;1640940;86;21098;-89
2022/06/08 01:11:05;;;;;;;14.87;10.55;;;;;;;15.51;100.00;100793.28;1638769;86;21189;-85
2022/06/08 01:13:36;;;;;;;15.28;10.48;;;;;;;15.51;100.00;100791.12;1640849;87;21107;-86
2022/06/08 01:16:09;;;;;;;18.07;11.22;;;;;;;15.48;100.00;100788.80;1637274;86;21142;-87
2022/06/08 01:18:39;;;;;;;17.70;11.00;;;;;;;15.44;100.00;100790.39;1640877;86;21051;-85
2022/06/08 01:21:27;;;;;;;15.25;10.82;;;;;;;15.41;100.00;100797.25;1640725;86;20999;-85
2022/06/08 01:24:03;;;;;;;18.82;10.90;;;;;;;15.38;100.00;100792.28;1637013;86;21284;-85
2022/06/08 01:26:55;;;;;;;15.88;10.43;;;;;;;15.37;100.00;100793.74;1616537;87;21178;-85
2022/06/08 01:29:31;;;;;;;14.65;10.28;;;;;;;15.35;100.00;100790.42;1640618;87;21591;-86
2022/06/08 01:32:07;;;;;;;13.50;9.80;;;;;;;15.36;100.00;100798.14;1640437;86;21011;-86
2022/06/08 01:35:23;;;;;;;14.83;11.22;;;;;;;15.37;100.00;100801.11;1640387;86;21079;-86
2022/06/08 01:38:36;;;;;;;15.60;11.28;;;;;;;15.36;100.00;100798.64;1640501;86;21254;-86
2022/06/08 01:41:29;;;;;;;14.65;11.10;;;;;;;15.37;100.00;100798.98;1640734;86;21102;-85
2022/06/08 01:44:17;;;;;;;14.68;11.60;;;;;;;15.38;100.00;100796.21;1640882;86;21126;-90
2022/06/08 01:47:08;;;;;;;17.25;12.47;;;;;;;15.38;100.00;100799.34;1638315;86;21612;-91
2022/06/08 01:49:47;;;;;;;;;;;;;;;15.36;100.00;100798.64;1639628;86;21047;-86
2022/06/08 01:52:41;;;;;;;15.25;11.00;;;;;;;15.32;100.00;100794.63;1637497;86;21177;-86
2022/06/08 01:55:34;;;;;;;12.33;10.40;;;;;;;15.25;100.00;100798.33;1606366;88;21085;-89
2022/06/08 01:58:06;;;;;;;13.38;9.95;;;;;;;15.20;100.00;100801.84;1599997;87;21078;-85
2022/06/08 02:00:42;;;;;;;14.47;10.78;;;;;;;15.14;100.00;100801.45;1675268;85;21078;-86
2022/06/08 02:03:17;;;;;;;14.35;9.60;;;;;;;15.11;100.00;100803.03;1634854;86;21600;-86
2022/06/08 02:06:08;;;;;;;14.80;9.93;;;;;;;15.08;100.00;100800.70;1634528;86;21169;-85
2022/06/08 02:08:52;;;;;;;15.72;10.45;;;;;;;15.09;100.00;100803.67;1638309;86;21051;-86
2022/06/08 02:11:32;;;;;;;;;;;;;;;15.09;100.00;100805.45;1639099;86;21076;-86
2022/06/08 02:14:10;;;;;;;15.83;9.45;;;;;;;15.10;100.00;100801.36;1635275;86;20502;-85
2022/06/08 02:16:52;;;;;;;14.78;9.50;;;;;;;15.10;100.00;100807.92;1633308;86;21049;-85
2022/06/08 02:19:35;;;;;;;13.50;9.43;;;;;;;15.08;100.00;100805.95;1638294;86;21080;-86
2022/06/08 02:22:24;;;;;;;15.63;9.85;;;;;;;15.08;100.00;100803.80;1635158;86;21065;-85
2022/06/08 02:25:25;;;;;;;13.78;10.32;;;;;;;15.08;100.00;100807.72;1629145;86;21082;-85
2022/06/08 02:28:04;;;;;;;12.18;9.68;;;;;;;15.09;100.00;100808.08;1634498;86;21096;-86
2022/06/08 02:30:43;;;;;;;34.25;12.20;;;;;;;15.12;100.00;100812.55;1635179;87;21047;-86
2022/06/08 02:36:27;;;;;;;17.82;10.03;;;;;;;15.21;100.00;100814.83;1638523;86;21502;-85
2022/06/08 02:39:20;;;;;;;18.30;10.43;;;;;;;15.25;100.00;100812.75;1638333;86;21568;-86
2022/06/08 02:41:51;;;;;;;16.32;9.90;;;;;;;15.28;100.00;100813.77;1637864;86;21090;-86
2022/06/08 02:44:24;;;;;;;22.13;10.18;;;;;;;15.33;100.00;100809.41;1634834;86;21086;-86
2022/06/08 02:47:18;;;;;;;17.17;10.18;;;;;;;15.36;100.00;100810.45;1635141;86;21165;-87
2022/06/08 02:49:46;;;;;;;16.77;10.05;;;;;;;15.40;100.00;100813.96;1636906;86;21107;-90
2022/06/08 02:52:20;;;;;;;17.45;10.95;;;;;;;15.44;100.00;100819.25;1638464;86;21117;-86
2022/06/08 02:54:50;;;;;;;15.35;10.28;;;;;;;15.48;100.00;100821.60;1635480;86;21501;-85
2022/06/08 02:57:44;;;;;;;25.63;11.67;;;;;;;15.51;100.00;100827.39;1638783;86;21075;-86
2022/06/08 03:00:28;;;;;;;16.67;12.00;;;;;;;15.55;100.00;100831.38;1638336;86;21253;-85
2022/06/08 03:03:07;;;;;;;18.20;13.10;;;;;;;15.60;100.00;100831.79;1635638;86;21067;-85
2022/06/08 03:05:40;;;;;;;26.87;15.72;;;;;;;15.65;100.00;100829.20;1637267;86;21202;-85
2022/06/08 03:08:22;;;;;;;35.68;20.65;;;;;;;15.69;100.00;100831.41;1635944;86;21094;-86
2022/06/08 03:10:51;;;;;;;29.07;19.90;;;;;;;15.67;100.00;100832.02;1612031;87;21047;-85
2022/06/08 03:13:29;;;;;;;31.75;19.42;;;;;;;15.56;100.00;100830.91;1638320;86;21981;-86
2022/06/08 03:16:04;;;;;;;26.12;16.65;;;;;;;15.48;100.00;100832.91;1636441;87;21562;-86
2022/06/08 03:18:31;;;;;;;22.13;16.32;;;;;;;15.50;100.00;100837.55;1638491;86;21121;-86
2022/06/08 03:21:02;;;;;;;23.22;17.80;;;;;;;15.56;100.00;100837.47;1638664;86;21012;-85
2022/06/08 03:23:31;;;;;;;23.12;15.53;;;;;;;15.63;100.00;100833.30;1638340;86;20991;-86
2022/06/08 03:25:59;;;;;;;20.60;15.63;;;;;;;15.70;100.00;100833.56;1638767;86;21184;-85
2022/06/08 03:28:27;;;;;;;22.62;15.83;;;;;;;15.76;100.00;100833.80;1638309;86;21051;-85
2022/06/08 03:30:54;;;;;;;21.87;15.55;;;;;;;15.85;100.00;100832.15;1638660;86;21494;-85
2022/06/08 03:33:21;;;;;;;18.73;14.80;;;;;;;15.93;100.00;100832.72;1638392;86;21112;-86
2022/06/08 03:35:49;;;;;;;20.20;15.32;;;;;;;16.03;100.00;100831.36;1638516;86;21130;-85
2022/06/08 03:38:18;;;;;;;23.57;15.08;;;;;;;16.13;100.00;100832.14;1638286;86;21853;-85
2022/06/08 03:40:46;;;;;;;22.25;14.60;;;;;;;16.23;100.00;100825.51;1638246;86;21024;-85
2022/06/08 03:43:16;;;;;;;18.87;13.60;;;;;;;16.34;100.00;100827.13;1634592;86;21129;-85
2022/06/08 03:45:49;;;;;;;19.65;14.90;;;;;;;16.45;100.00;100829.53;1638647;86;21071;-86
2022/06/08 03:48:17;;;;;;;16.80;13.88;;;;;;;16.56;100.00;100828.02;1634524;86;21011;-85
2022/06/08 03:50:51;;;;;;;26.95;14.20;;;;;;;16.66;100.00;100825.30;1638449;86;21158;-85
2022/06/08 03:53:34;;;;;;;19.17;14.90;;;;;;;16.79;100.00;100827.56;1635746;86;21043;-85
2022/06/08 03:56:04;;;;;;;19.87;15.05;;;;;;;16.93;100.00;100836.75;1637679;86;21063;-85
2022/06/08 03:58:32;;;;;;;19.90;15.10;;;;;;;17.07;100.00;100837.18;1638837;86;20991;-85
2022/06/08 04:01:01;;;;;;;19.25;14.33;;;;;;;17.17;100.00;100829.53;1612871;87;21794;-85
2022/06/08 04:03:28;;;;;;;16.17;13.60;;;;;;;17.28;100.00;100835.53;1638358;86;21272;-85
2022/06/08 04:05:58;;;;;;;20.12;14.80;;;;;;;17.40;100.00;100833.47;1638432;86;21556;-84
2022/06/08 04:08:26;;;;;;;17.87;12.98;;;;;;;17.52;100.00;100833.53;1638511;86;21038;-85
2022/06/08 04:10:55;;;;;;;16.57;13.35;;;;;;;17.66;100.00;100829.02;1638941;86;21576;-85
2022/06/08 04:13:22;;;;;;;15.35;13.15;;;;;;;17.81;100.00;100827.11;1638591;86;21027;-85
2022/06/08 04:15:50;;;;;;;19.17;13.48;;;;;;;17.93;100.00;100831.10;1639090;87;21159;-85
2022/06/08 04:18:22;;;;;;;21.93;14.90;;;;;;;18.09;100.00;100836.97;1618442;86;21043;-85
2022/06/08 04:20:55;;;;;;;24.80;15.98;;;;;;;18.22;100.00;100833.89;1638611;86;21103;-85
2022/06/08 04:23:27;;;;;;;26.80;19.30;;;;;;;18.36;100.00;100835.05;1638368;86;21599;-85
2022/06/08 04:25:55;;;;;;;33.13;20.83;;;;;;;18.48;100.00;100832.12;1639025;86;21083;-85
2022/06/08 04:28:24;;;;;;;33.67;21.73;;;;;;;18.58;100.00;100837.58;1638527;87;21820;-87
2022/06/08 04:30:53;;;;;;;25.62;16.75;;;;;;;18.68;100.00;100834.77;1638622;86;21118;-85
2022/06/08 04:33:22;;;;;;;21.73;15.15;;;;;;;18.78;100.00;100837.28;1638540;86;21074;-89
2022/06/08 04:35:50;;;;;;;24.40;15.58;;;;;;;18.89;100.00;100838.25;1638307;86;21580;-87
2022/06/08 04:38:18;;;;;;;21.87;15.65;;;;;;;19.01;100.00;100836.14;1638423;86;21027;-85
2022/06/08 04:40:47;;;;;;;20.12;16.10;;;;;;;19.13;100.00;100841.91;1638260;86;21817;-85
2022/06/08 04:43:16;;;;;;;19.10;14.80;;;;;;;19.25;100.00;100841.06;1638413;86;21624;-85
2022/06/08 04:45:44;;;;;;;19.32;13.68;;;;;;;19.38;100.00;100839.23;1608003;87;21019;-85
2022/06/08 04:48:12;;;;;;;20.62;14.53;;;;;;;19.48;100.00;100848.28;1638655;86;21090;-86
2022/06/08 04:50:41;;;;;;;17.67;13.58;;;;;;;19.59;100.00;100843.17;1638302;86;21039;-85
2022/06/08 04:53:09;;;;;;;18.35;13.95;;;;;;;19.70;100.00;100836.19;1621793;87;21127;-85
2022/06/08 04:55:38;;;;;;;19.25;14.87;;;;;;;19.79;100.00;100835.17;1606751;88;21103;-85
2022/06/08 04:58:05;;;;;;;24.40;15.70;;;;;;;19.88;100.00;100833.84;1635461;87;21042;-85
2022/06/08 05:00:33;;;;;;;19.55;14.38;;;;;;;19.98;100.00;100832.64;1639187;87;21030;-85
2022/06/08 05:03:01;;;;;;;21.70;13.55;;;;;;;20.12;100.00;100834.22;1617368;87;21536;-85
2022/06/08 05:05:38;;;;;;;19.42;14.50;;;;;;;20.24;100.00;100841.27;1638404;87;21836;-90
2022/06/08 05:08:08;;;;;;;18.35;13.22;;;;;;;20.33;100.00;100835.78;1637908;85;21031;-85
2022/06/08 05:10:38;;;;;;;20.15;13.60;;;;;;;20.45;100.00;100833.55;1679129;85;21691;-86
2022/06/08 05:13:08;;;;;;;18.80;14.17;;;;;;;20.55;100.00;100831.99;1678743;85;21010;-86
2022/06/08 05:15:39;;;;;;;21.90;13.48;;;;;;;20.69;100.00;100836.19;1655491;85;21291;-85
2022/06/08 05:18:07;;;;;;;;;;;;;;;20.82;100.00;100834.30;1681149;85;21137;-85
2022/06/08 05:20:39;;;;;;;22.05;13.22;;;;;;;20.97;100.00;100832.52;1678617;85;20176;-90
2022/06/08 05:23:13;;;;;;;28.60;13.75;;;;;;;21.11;100.00;100829.08;1678590;85;21547;-85
2022/06/08 05:25:42;;;;;;;31.37;14.13;;;;;;;21.24;100.00;100829.78;1643787;86;21615;-85
2022/06/08 05:28:11;;;;;;;21.70;14.25;;;;;;;21.37;100.00;100830.48;1678716;85;21034;-85
2022/06/08 05:30:41;;;;;;;;;;;;;;;21.47;100.00;100829.41;1677884;85;21775;-85
2022/06/08 05:33:10;;;;;;;32.23;14.73;;;;;;;21.58;100.00;100832.97;1702262;84;20140;-89
2022/06/08 05:35:40;;;;;;;27.40;14.40;;;;;;;21.68;100.00;100830.84;1655395;85;21149;-86
2022/06/08 05:38:08;;;;;;;30.35;14.40;;;;;;;21.82;100.00;100834.49;1678620;85;21077;-85
2022/06/08 05:40:37;;;;;;;26.70;14.90;;;;;;;21.97;100.00;100830.51;1678387;85;21025;-85
2022/06/08 05:43:08;;;;;;;27.05;13.78;;;;;;;22.11;100.00;100833.30;1678660;85;21153;-84
2022/06/08 05:45:35;;;;;;;29.40;14.10;;;;;;;22.27;100.00;100828.30;1678446;85;21554;-85
2022/06/08 05:48:06;;;;;;;31.12;14.98;;;;;;;22.43;100.00;100827.25;1677942;85;21046;-86
2022/06/08 05:50:36;;;;;;;27.42;13.72;;;;;;;22.57;100.00;100829.02;1641328;85;21061;-85
2022/06/08 05:53:04;;;;;;;29.98;14.45;;;;;;;22.67;100.00;100821.57;1649201;87;21074;-84
2022/06/08 05:55:32;;;;;;;27.70;14.10;;;;;;;22.78;100.00;100825.54;1649517;87;21106;-84
2022/06/08 05:58:00;;;;;;;21.68;12.58;;;;;;;22.87;100.00;100820.94;1649263;87;21023;-85
2022/06/08 06:00:33;;;;;;;26.73;13.32;;;;;;;22.97;100.00;100821.92;1649580;87;21067;-84
2022/06/08 06:03:01;;;;;;;21.70;13.48;;;;;;;23.06;100.00;100812.80;1647143;87;21071;-85
2022/06/08 06:05:32;;;;;;;34.67;15.00;;;;;;;23.19;100.00;100816.09;1649492;87;21078;-87
2022/06/08 06:08:03;;;;;;;25.72;13.93;;;;;;;23.31;100.00;100817.70;1646981;87;21292;-85
2022/06/08 06:10:37;;;;;;;22.65;13.45;;;;;;;23.37;100.00;100813.42;1621987;87;28055;-85
2022/06/08 06:13:05;;;;;;;25.52;13.58;;;;;;;23.44;100.00;100814.27;1605687;88;21680;-85
2022/06/08 06:15:37;;;;;;;30.68;14.15;;;;;;;23.51;100.00;100809.84;1601857;88;21070;-85
2022/06/08 06:18:06;;;;;;;28.42;14.03;;;;;;;23.62;100.00;100809.27;1607523;88;21044;-85
2022/06/08 06:20:35;;;;;;;23.90;14.10;;;;;;;23.75;100.00;100814.35;1563570;90;21188;-85
2022/06/08 06:23:06;;;;;;;20.95;13.53;;;;;;;23.87;100.00;100807.44;1608216;87;21135;-85
2022/06/08 06:25:52;;;;;;;22.48;13.88;;;;;;;23.99;100.00;100812.22;1607279;88;21074;-85
2022/06/08 06:28:27;;;;;;;25.10;13.05;;;;;;;24.11;100.00;100805.29;1544047;89;21037;-85
2022/06/08 06:31:00;;;;;;;19.57;13.32;;;;;;;24.25;100.00;100798.16;1607399;87;21042;-85
2022/06/08 06:33:34;;;;;;;22.00;13.30;;;;;;;24.40;100.00;100797.97;1604779;88;21280;-85
2022/06/08 06:36:03;;;;;;;20.32;12.20;;;;;;;24.51;100.00;100800.04;1604651;88;21046;-85
2022/06/08 06:38:31;;;;;;;26.35;12.05;;;;;;;24.63;100.00;100796.78;1607441;88;21041;-85
2022/06/08 06:40:59;;;;;;;17.48;11.55;;;;;;;24.72;94.69;100792.41;1608092;87;21116;-85
2022/06/08 06:43:26;;;;;;;20.35;11.73;;;;;;;24.81;97.43;100794.33;1650161;85;21014;-85
2022/06/08 06:45:55;;;;;;;27.02;12.10;;;;;;;24.92;98.64;100794.22;1647105;87;21521;-85
2022/06/08 06:48:27;;;;;;;22.95;12.18;;;;;;;25.02;95.99;100793.82;1647065;87;21110;-88
2022/06/08 06:50:56;;;;;;;17.40;11.50;;;;;;;25.09;92.00;100792.45;1642429;87;21027;-85
2022/06/08 06:53:23;;;;;;;18.70;10.93;;;;;;;25.15;87.33;100791.12;1649367;87;21580;-85
2022/06/08 06:55:52;;;;;;;14.98;10.93;;;;;;;25.24;87.83;100793.56;1647333;87;21799;-85
2022/06/08 06:58:22;;;;;;;19.10;10.00;;;;;;;25.34;84.44;100790.77;1647111;87;21661;-84
2022/06/08 07:00:49;;;;;;;15.58;10.55;;;;;;;25.40;79.00;100792.34;1649451;87;21020;-85
2022/06/08 07:03:19;;;;;;;15.98;10.50;;;;;;;25.45;79.98;100795.99;1649370;87;21066;-85
2022/06/08 07:05:48;;;;;;;11.22;9.65;;;;;;;25.51;78.37;100787.17;1647078;87;21007;-85
2022/06/08 07:08:16;;;;;;;12.35;9.25;;;;;;;25.60;73.82;100788.28;1670520;85;21070;-85
2022/06/08 07:11:32;;;;;;;13.13;9.03;;;;;;;25.69;78.29;100790.98;1678528;85;21242;-85
2022/06/08 07:13:15;;;;;;;12.00;7.78;;;;;;;25.83;83.66;100784.58;1675272;85;21046;-85
2022/06/08 07:15:43;;;;;;;13.62;8.53;;;;;;;25.98;85.83;100788.81;1678522;85;21856;-85
2022/06/08 07:18:15;;;;;;;14.68;9.35;;;;;;;26.08;77.35;100782.50;1648467;85;21051;-89
2022/06/08 07:20:42;;;;;;;12.05;8.63;;;;;;;26.19;78.98;100781.52;1625196;87;21191;-85
2022/06/08 07:23:09;;;;;;;12.58;8.80;;;;;;;26.29;73.39;100784.54;1626209;87;21930;-85
2022/06/08 07:25:37;;;;;;;9.75;8.08;;;;;;;26.34;71.20;100784.70;1635793;87;21138;-85
2022/06/08 07:28:04;;;;;;;9.65;7.90;;;;;;;26.42;66.29;100781.77;1636344;87;21657;-85
2022/06/08 07:30:31;;;;;;;6.60;5.90;;;;;;;26.48;67.91;100772.61;1646000;85;21054;-85
2022/06/08 07:32:59;;;;;;;10.65;7.17;;;;;;;26.57;69.30;100778.79;1642221;85;21568;-86
2022/06/08 07:35:26;;;;;;;8.75;6.85;;;;;;;26.64;66.29;100779.24;1650848;85;21168;-86
2022/06/08 07:37:53;;;;;;;8.10;6.65;;;;;;;26.71;67.15;100774.66;1648663;86;21028;-85
2022/06/08 07:40:22;;;;;;;8.65;6.50;;;;;;;26.79;59.78;100774.95;1640510;87;21023;-87
2022/06/08 07:42:49;;;;;;;7.05;6.12;;;;;;;26.87;64.22;100772.80;1640859;87;21070;-85
2022/06/08 07:45:16;;;;;;;7.40;6.70;;;;;;;26.99;66.28;100772.08;1641380;85;21139;-85
2022/06/08 07:50:31;;;;;;;9.63;6.58;;;;;;;27.06;64.10;100762.95;1649598;87;21103;-88
2022/06/08 07:53:00;;;;;;;8.45;6.55;;;;;;;27.13;64.30;100763.39;1645852;85;21687;-86
2022/06/08 07:55:27;;;;;;;7.50;6.70;;;;;;;27.20;58.21;100762.29;1639251;87;22215;-85
2022/06/08 07:57:55;;;;;;;8.00;7.20;;;;;;;27.27;62.56;100766.73;1650961;86;21047;-84
2022/06/08 08:00:22;;;;;;;9.50;8.13;;;;;;;27.31;59.38;100762.06;1651161;86;21739;-85
2022/06/08 08:02:49;;;;;;;8.65;7.87;;;;;;;27.34;56.73;100762.13;1650760;86;21031;-86
2022/06/08 08:05:18;;;;;;;12.65;7.70;;;;;;;27.35;57.59;100761.09;1651547;85;21070;-85
2022/06/08 08:07:46;;;;;;;11.20;8.70;;;;;;;27.36;51.46;100753.38;1642251;85;21073;-87
2022/06/08 08:10:19;;;;;;;10.08;8.03;;;;;;;27.42;53.06;100753.00;1620066;87;21534;-87
2022/06/08 08:12:46;;;;;;;10.38;7.65;;;;;;;27.49;54.92;100751.09;1607892;88;21295;-89
2022/06/08 08:15:16;;;;;;;10.13;7.65;;;;;;;27.55;56.67;100744.34;1609372;87;22008;-86
2022/06/08 08:17:44;;;;;;;12.37;8.08;;;;;;;27.61;53.70;100745.80;1657897;85;21542;-87
2022/06/08 08:20:16;;;;;;;9.30;7.60;;;;;;;27.66;56.30;100736.56;1657646;85;21001;-86
2022/06/08 08:22:46;;;;;;;12.43;7.72;;;;;;;27.73;58.43;100739.16;1657903;86;21076;-86
2022/06/08 08:25:15;;;;;;;13.48;8.05;;;;;;;27.79;58.70;100739.58;1637515;86;21815;-86
2022/06/08 08:27:44;;;;;;;9.05;7.65;;;;;;;27.82;58.46;100734.59;1634259;86;21200;-88
2022/06/08 08:30:16;;;;;;;10.60;7.97;;;;;;;27.87;57.68;100739.27;1624230;88;21078;-85
2022/06/08 08:32:43;;;;;;;12.78;8.30;;;;;;;27.89;57.97;100736.34;1638040;85;22339;-86
2022/06/08 08:35:12;;;;;;;18.10;8.23;;;;;;;27.88;48.66;100730.73;1621490;87;21126;-86
2022/06/08 08:37:39;;;;;;;10.63;8.20;;;;;;;27.83;53.71;100736.77;1617270;87;21171;-88
2022/06/08 08:40:11;;;;;;;8.23;7.42;;;;;;;27.83;54.41;100740.24;1597005;88;21128;-90
2022/06/08 08:42:38;;;;;;;8.03;7.20;;;;;;;27.91;58.14;100733.77;1646272;86;21577;-86
2022/06/08 08:45:13;;;;;;;9.38;7.80;;;;;;;27.98;55.84;100726.45;1607369;87;21088;-86
2022/06/08 08:48:07;;;;;;;12.37;7.90;;;;;;;28.03;53.95;100733.27;1607324;87;21144;-86
2022/06/08 08:50:48;;;;;;;10.40;7.62;;;;;;;28.08;54.52;100729.13;1604161;87;21647;-88
2022/06/08 08:53:27;;;;;;;11.22;7.53;;;;;;;28.14;50.34;100732.22;1616245;87;21575;-86
2022/06/08 08:56:03;;;;;;;9.70;6.92;;;;;;;28.23;49.03;100729.50;1598305;87;21077;-87
2022/06/08 08:58:36;;;;;;;9.03;7.33;;;;;;;28.31;47.91;100725.16;1606343;88;21052;-86
2022/06/08 09:01:17;;;;;;;8.40;7.60;;;;;;;28.43;50.22;100723.82;1651065;85;20985;-86
2022/06/08 09:03:56;;;;;;;8.88;7.87;;;;;;;28.50;51.22;100722.34;1648787;86;21171;-86
2022/06/08 09:06:30;;;;;;;7.92;7.17;;;;;;;28.55;52.33;100720.31;1649491;86;21107;-87
2022/06/08 09:09:03;;;;;;;8.73;6.87;;;;;;;28.60;48.06;100719.91;1646144;86;21056;-86
2022/06/08 09:11:38;;;;;;;7.87;6.45;;;;;;;28.63;44.90;100715.44;1633094;87;21077;-86
2022/06/08 09:14:17;;;;;;;9.35;5.72;;;;;;;28.69;47.94;100710.19;1631909;86;21107;-86
2022/06/08 09:16:48;;;;;;;9.35;5.42;;;;;;;28.71;49.77;100706.79;1631017;88;21175;-87
2022/06/08 09:19:33;;;;;;;6.58;5.72;;;;;;;28.73;50.41;100697.97;1616464;87;21072;-86
2022/06/08 09:22:13;;;;;;;6.72;5.40;;;;;;;28.77;45.34;100703.97;1614568;87;21106;-86
2022/06/08 09:24:48;;;;;;;5.60;5.10;;;;;;;28.82;45.69;100700.59;1591057;87;21131;-87
2022/06/08 09:27:23;;;;;;;7.60;5.15;;;;;;;28.91;45.65;100705.88;1633542;86;21108;-87
2022/06/08 09:30:18;;;;;;;6.08;4.92;;;;;;;28.98;45.25;100704.92;1619266;87;21816;-87
2022/06/08 09:33:17;;;;;;;5.60;5.10;;;;;;;29.02;45.17;100704.76;1623461;87;21097;-86
2022/06/08 09:35:55;;;;;;;8.58;4.97;;;;;;;29.05;44.40;100702.41;1621638;88;21121;-86
2022/06/08 09:38:26;;;;;;;5.70;5.20;;;;;;;29.11;41.09;100692.62;1622061;88;21067;-87
2022/06/08 09:41:24;;;;;;;5.95;5.35;;;;;;;29.12;45.28;100696.39;1623023;88;21083;-86
2022/06/08 09:44:26;;;;;;;6.50;5.10;;;;;;;29.12;44.07;100695.59;1605806;88;21196;-87
2022/06/08 09:53:56;;;;;;;6.30;5.47;;;;;;;29.37;46.74;100689.94;1638362;87;21007;-86
2022/06/08 09:56:47;;;;;;;7.62;5.65;;;;;;;29.45;44.81;100669.95;1626959;86;21623;-90
2022/06/08 09:59:52;;;;;;;7.45;5.28;;;;;;;29.52;46.28;100675.17;1633415;87;21053;-86
2022/06/08 10:02:39;;;;;;;10.48;6.10;;;;;;;29.58;45.01;100672.86;1633363;87;21068;-87
2022/06/08 10:05:25;;;;;;;8.38;5.45;;;;;;;29.68;41.20;100673.59;1630783;86;21522;-86
2022/06/08 10:08:06;;;;;;;6.60;5.20;;;;;;;29.72;44.99;100670.70;1630854;86;21108;-86
2022/06/08 10:10:41;;;;;;;6.10;5.40;;;;;;;29.75;38.93;100675.05;1606213;87;21025;-86
2022/06/08 10:13:29;;;;;;;8.00;5.17;;;;;;;29.71;40.06;100669.06;1633469;86;21306;-86
2022/06/08 10:16:13;;;;;;;8.95;6.12;;;;;;;29.63;38.52;100657.39;1624368;87;21054;-87
2022/06/08 10:18:57;;;;;;;9.08;5.45;;;;;;;29.49;38.35;100664.91;1650379;86;21045;-86
2022/06/08 10:21:29;;;;;;;7.25;5.92;;;;;;;29.45;39.20;100663.24;1662628;84;21127;-87
2022/06/08 10:24:08;;;;;;;7.37;5.67;;;;;;;29.47;41.70;100659.80;1647887;84;21042;-87
2022/06/08 10:26:46;;;;;;;7.97;5.28;;;;;;;29.57;41.69;100664.52;1648102;87;21148;-87
2022/06/08 10:29:42;;;;;;;6.22;5.22;;;;;;;29.65;40.44;100656.09;1635636;86;21059;-86
2022/06/08 10:32:18;;;;;;;7.72;5.65;;;;;;;29.69;41.51;100650.53;1647716;86;21067;-86
2022/06/08 10:34:53;;;;;;;6.90;5.65;;;;;;;29.80;40.67;100650.17;1644370;86;21091;-87
2022/06/08 10:37:26;;;;;;;8.60;5.70;;;;;;;29.87;38.90;100649.48;1647183;86;21636;-86
2022/06/08 10:39:54;;;;;;;6.53;5.70;;;;;;;29.95;39.01;100648.82;1645770;86;21288;-86
2022/06/08 10:42:46;;;;;;;7.62;5.42;;;;;;;30.03;40.97;100643.05;1644827;87;21040;-87
2022/06/08 10:45:31;;;;;;;6.67;5.58;;;;;;;30.08;38.57;100645.83;1642756;85;21042;-86
2022/06/08 10:48:04;;;;;;;7.25;6.17;;;;;;;30.18;40.09;100640.59;1605705;87;21547;-86
2022/06/08 10:50:37;;;;;;;6.12;5.50;;;;;;;30.32;40.38;100641.06;1594339;89;21085;-86
2022/06/08 10:56:36;;;;;;;5.85;5.33;;;;;;;30.51;38.68;100638.93;1653105;85;21061;-88
2022/06/08 10:59:14;;;;;;;6.72;5.40;;;;;;;30.42;35.62;100636.35;1598540;88;21194;-91
2022/06/08 11:02:16;;;;;;;6.00;4.37;;;;;;;30.35;35.80;100634.38;1588502;89;21116;-86
2022/06/08 11:05:10;;;;;;;6.47;5.20;;;;;;;30.38;39.88;100629.33;1594884;88;21594;-86
2022/06/08 11:08:07;;;;;;;6.17;5.10;;;;;;;30.47;36.71;100627.05;1589609;88;21295;-86
2022/06/08 11:10:51;;;;;;;6.05;4.92;;;;;;;30.47;36.93;100627.55;1608271;87;21037;-86
2022/06/08 11:13:32;;;;;;;7.70;5.22;;;;;;;30.60;38.80;100620.52;1579942;90;21585;-87
2022/06/08 11:16:15;;;;;;;6.73;5.47;;;;;;;30.69;39.50;100612.83;1596156;88;21054;-86
2022/06/08 11:18:53;;;;;;;5.87;5.00;;;;;;;30.74;38.04;100625.52;1611598;88;21808;-87
2022/06/08 11:21:54;;;;;;;9.23;5.40;;;;;;;30.74;40.88;100620.94;1594344;89;21193;-86
2022/06/08 11:24:32;;;;;;;6.05;5.45;;;;;;;30.76;41.28;100622.05;1587405;89;28330;-86
2022/06/08 11:27:14;;;;;;;6.47;5.22;;;;;;;30.74;41.16;100616.11;1593130;89;21138;-86
2022/06/08 11:29:55;;;;;;;7.78;5.72;;;;;;;30.71;41.40;100621.45;1596285;88;21007;-86
2022/06/08 11:32:36;;;;;;;6.30;5.53;;;;;;;30.75;39.00;100616.39;1603152;87;21159;-86
2022/06/08 11:35:41;;;;;;;8.00;5.62;;;;;;;30.82;39.00;100618.36;1595947;88;21203;-86
2022/06/08 11:38:33;;;;;;;9.78;5.75;;;;;;;30.93;40.53;100621.97;1599619;87;21090;-86
2022/06/08 11:41:32;;;;;;;5.53;4.45;;;;;;;31.10;36.59;100617.88;1606326;88;21162;-86
2022/06/08 11:44:18;;;;;;;5.30;4.70;;;;;;;31.12;33.93;100617.92;1610586;87;21188;-86
2022/06/08 11:46:53;;;;;;;5.87;5.28;;;;;;;31.20;36.54;100613.16;1599258;88;21065;-86
2022/06/08 11:49:46;;;;;;;10.90;6.37;;;;;;;31.21;37.27;100607.51;1646725;85;21220;-87
2022/06/08 11:52:38;;;;;;;7.05;6.25;;;;;;;31.20;34.60;100602.39;1573865;90;21063;-89
2022/06/08 11:55:16;;;;;;;7.22;6.05;;;;;;;31.21;36.35;100602.68;1550127;91;21613;-87
2022/06/08 11:57:55;;;;;;;6.62;4.97;;;;;;;31.30;38.39;100596.58;1586479;87;21065;-86
2022/06/08 12:00:37;;;;;;;9.15;6.17;;;;;;;31.40;38.86;100600.43;1642986;85;21129;-86
2022/06/08 12:03:42;;;;;;;6.40;5.80;;;;;;;31.49;36.56;100603.45;1626459;86;21670;-88